Time;durP1;ratioP1;P1;durP2;ratioP2;P2;SDS_P1;SDS_P2;PMS_P1;PMS_P2;Temp;Humidity;BMP_temperature;BMP_pressure;BME280_temperature;BME280_humidity;BME280_pressure;Samples;Min_cycle;Max_cycle;Signal;HPM_P1;HPM_P2
2023/12/22 00:00:34;;;;;;;11.90;3.00;;;;;;;5.55;100.00;96980.32;105006;1262;99188;-76
2023/12/22 00:03:37;;;;;;;13.30;3.60;;;;;;;5.55;100.00;96980.75;105119;1267;97979;-75
2023/12/22 00:06:22;;;;;;;9.10;2.60;;;;;;;5.55;100.00;96976.87;105096;1263;98077;-76
2023/12/22 00:09:08;;;;;;;7.40;2.80;;;;;;;5.55;100.00;96975.11;105157;1266;98466;-76
2023/12/22 00:11:54;;;;;;;12.90;3.00;;;;;;;5.54;100.00;96971.02;105056;1266;102642;-77
2023/12/22 00:14:40;;;;;;;8.30;3.10;;;;;;;5.52;100.00;96974.21;104975;1267;99158;-76
2023/12/22 00:17:25;;;;;;;17.50;3.00;;;;;;;5.49;100.00;96980.18;104786;1267;98999;-75
2023/12/22 00:20:13;;;;;;;12.70;3.90;;;;;;;5.47;100.00;96973.02;104841;1266;99229;-75
2023/12/22 00:22:58;;;;;;;9.50;2.60;;;;;;;5.44;100.00;96970.85;105147;1263;97963;-76
2023/12/22 00:25:44;;;;;;;10.20;3.50;;;;;;;5.40;100.00;96972.55;104756;1262;101430;-75
2023/12/22 00:28:31;;;;;;;14.10;3.70;;;;;;;5.36;100.00;96973.02;104688;1278;99260;-76
2023/12/22 00:31:16;;;;;;;16.30;3.10;;;;;;;5.32;100.00;96970.62;104881;1264;98020;-76
2023/12/22 00:34:02;;;;;;;9.40;2.90;;;;;;;5.30;100.00;96973.73;104764;1262;97985;-75
2023/12/22 00:36:48;;;;;;;10.50;2.70;;;;;;;5.28;100.00;96972.73;104976;1262;98119;-77
2023/12/22 00:39:34;;;;;;;11.40;3.00;;;;;;;5.25;100.00;96971.99;104768;1263;102642;-76
2023/12/22 00:42:19;;;;;;;15.20;3.20;;;;;;;5.22;100.00;96972.27;104798;1267;99158;-76
2023/12/22 00:45:06;;;;;;;10.90;2.60;;;;;;;5.19;100.00;96964.24;104956;1270;99109;-75
2023/12/22 00:47:51;;;;;;;9.80;2.50;;;;;;;5.16;100.00;96974.52;105095;1267;98071;-76
2023/12/22 00:50:37;;;;;;;14.00;3.00;;;;;;;5.14;100.00;96979.79;104994;1267;97902;-77
2023/12/22 00:53:22;;;;;;;11.10;3.00;;;;;;;5.13;100.00;96986.02;105033;1267;101374;-76
2023/12/22 00:56:08;;;;;;;12.30;2.40;;;;;;;5.12;100.00;96986.20;105086;1267;100351;-76
2023/12/22 00:58:53;;;;;;;13.70;3.40;;;;;;;5.10;100.00;96987.71;104994;1267;99586;-77
2023/12/22 01:01:39;;;;;;;17.90;3.90;;;;;;;5.08;100.00;96987.68;104686;1266;97911;-77
2023/12/22 01:04:24;;;;;;;18.00;3.10;;;;;;;5.07;100.00;96990.33;104874;1266;99259;-77
2023/12/22 01:07:11;;;;;;;10.40;3.30;;;;;;;5.08;100.00;96992.92;104717;1262;102711;-76
2023/12/22 01:10:01;;;;;;;10.70;2.80;;;;;;;5.07;100.00;96994.36;104790;1267;99160;-77
2023/12/22 01:12:46;;;;;;;11.60;2.80;;;;;;;5.07;100.00;96988.25;104908;1262;98788;-76
2023/12/22 01:15:32;;;;;;;13.80;3.00;;;;;;;5.08;100.00;96985.34;105049;1263;98149;-77
2023/12/22 01:18:18;;;;;;;14.90;3.30;;;;;;;5.07;100.00;96981.92;105074;1264;98499;-76
2023/12/22 01:21:03;;;;;;;13.30;2.70;;;;;;;5.04;100.00;96978.44;105213;1264;103623;-76
2023/12/22 01:23:49;;;;;;;17.90;3.90;;;;;;;5.02;100.00;96978.29;104982;1262;99781;-76
2023/12/22 01:26:34;;;;;;;8.90;3.00;;;;;;;5.00;100.00;96969.25;105033;1263;97982;-76
2023/12/22 01:29:20;;;;;;;21.40;3.90;;;;;;;4.99;100.00;96971.41;104957;1267;97986;-76
2023/12/22 01:32:06;;;;;;;18.20;3.60;;;;;;;4.99;100.00;96977.13;104970;1262;97787;-76
2023/12/22 01:34:51;;;;;;;10.20;2.70;;;;;;;4.99;100.00;96979.20;105139;1270;101421;-76
2023/12/22 01:37:37;;;;;;;14.20;3.90;;;;;;;5.00;100.00;96984.26;105228;1267;99076;-76
2023/12/22 01:40:23;;;;;;;15.00;3.30;;;;;;;4.99;100.00;96980.30;105059;1264;98018;-76
2023/12/22 01:43:09;;;;;;;12.10;3.40;;;;;;;4.98;100.00;96981.67;104998;1262;97966;-76
2023/12/22 01:45:57;;;;;;;18.50;4.70;;;;;;;4.97;100.00;96983.46;104987;1264;99148;-76
2023/12/22 01:48:42;;;;;;;14.00;3.50;;;;;;;4.96;100.00;96978.25;105739;1262;101354;-77
2023/12/22 01:51:32;;;;;;;14.20;3.10;;;;;;;4.96;100.00;96976.80;105044;1264;99122;-76
2023/12/22 01:54:18;;;;;;;13.60;2.80;;;;;;;4.95;100.00;96977.11;104862;1262;98859;-76
2023/12/22 01:57:04;;;;;;;11.60;3.10;;;;;;;4.96;100.00;96979.94;104722;1266;97984;-76
2023/12/22 01:59:50;;;;;;;12.00;3.60;;;;;;;4.97;100.00;96977.70;104810;1262;98005;-76
2023/12/22 02:02:38;;;;;;;9.50;3.00;;;;;;;4.97;100.00;96983.25;104854;1263;101915;-76
2023/12/22 02:05:23;;;;;;;17.90;3.80;;;;;;;4.98;100.00;96986.08;104884;1263;99448;-76
2023/12/22 02:08:09;;;;;;;13.80;2.90;;;;;;;4.99;100.00;96986.72;104772;1267;98512;-76
2023/12/22 02:10:55;;;;;;;17.40;2.90;;;;;;;4.99;100.00;96989.48;105374;1262;98073;-77
2023/12/22 02:13:43;;;;;;;8.30;2.90;;;;;;;4.99;100.00;96987.48;105092;1267;97986;-76
2023/12/22 02:16:34;;;;;;;12.00;2.50;;;;;;;5.00;100.00;96986.84;105324;1267;102594;-77
2023/12/22 02:19:37;;;;;;;12.80;4.20;;;;;;;5.01;100.00;96983.04;105066;1267;99093;-77
2023/12/22 02:22:23;;;;;;;11.30;2.80;;;;;;;5.01;100.00;96979.12;105031;1264;98431;-76
2023/12/22 02:25:09;;;;;;;10.60;2.50;;;;;;;5.01;100.00;96983.04;104997;1267;98522;-76
2023/12/22 02:28:04;;;;;;;16.10;3.80;;;;;;;5.00;100.00;96979.27;104980;1262;98882;-76
2023/12/22 02:30:56;;;;;;;12.30;3.30;;;;;;;5.00;100.00;96979.14;105020;1262;101535;-76
2023/12/22 02:33:43;;;;;;;15.20;3.30;;;;;;;4.99;100.00;96980.69;104864;1264;99740;-75
2023/12/22 02:36:31;;;;;;;16.60;2.70;;;;;;;4.99;100.00;96972.57;104829;1263;99709;-76
2023/12/22 02:39:18;;;;;;;9.60;2.80;;;;;;;5.01;100.00;96982.19;105455;1262;97926;-75
2023/12/22 02:42:05;;;;;;;9.80;3.10;;;;;;;4.99;100.00;96978.56;104925;1267;98574;-75
2023/12/22 02:44:51;;;;;;;13.40;3.10;;;;;;;4.98;100.00;96978.29;104953;1262;102104;-75
2023/12/22 02:47:37;;;;;;;9.20;3.00;;;;;;;4.96;100.00;96979.73;105012;1263;101308;-75
2023/12/22 02:50:22;;;;;;;10.90;3.40;;;;;;;4.90;100.00;96986.14;104828;1264;97969;-75
2023/12/22 02:53:08;;;;;;;9.80;2.90;;;;;;;4.82;100.00;96987.64;104973;1262;97906;-76
2023/12/22 02:55:53;;;;;;;16.70;3.30;;;;;;;4.73;100.00;96990.61;104948;1267;97891;-76
2023/12/22 02:58:39;;;;;;;12.80;3.70;;;;;;;4.66;100.00;96991.73;105193;1267;101718;-76
2023/12/22 03:01:25;;;;;;;11.50;3.20;;;;;;;4.60;100.00;96986.60;105069;1266;99122;-75
2023/12/22 03:04:10;;;;;;;13.90;3.70;;;;;;;4.57;100.00;96985.44;105023;1266;99179;-76
2023/12/22 03:06:56;;;;;;;17.50;3.80;;;;;;;4.55;100.00;96982.48;105018;1267;97878;-76
2023/12/22 03:09:42;;;;;;;11.10;3.10;;;;;;;4.54;100.00;96986.52;105008;1277;98541;-76
2023/12/22 03:12:28;;;;;;;14.30;4.20;;;;;;;4.54;100.00;96986.16;104823;1267;101384;-75
2023/12/22 03:15:13;;;;;;;17.80;3.10;;;;;;;4.53;100.00;96993.67;105061;1267;100465;-76
2023/12/22 03:17:59;;;;;;;9.40;2.50;;;;;;;4.51;100.00;96988.55;104825;1263;98039;-76
2023/12/22 03:20:44;;;;;;;16.40;3.80;;;;;;;4.48;100.00;96986.64;104771;1267;98009;-75
2023/12/22 03:23:30;;;;;;;12.30;3.90;;;;;;;4.46;100.00;96984.16;104895;1264;100377;-76
2023/12/22 03:26:15;;;;;;;13.50;3.20;;;;;;;4.44;100.00;96983.77;104940;1265;102130;-76
2023/12/22 03:29:01;;;;;;;20.00;4.90;;;;;;;4.43;100.00;96985.33;105048;1282;99100;-76
2023/12/22 03:31:47;;;;;;;14.90;4.00;;;;;;;4.42;100.00;96989.64;104831;1262;97998;-76
2023/12/22 03:34:32;;;;;;;16.20;3.40;;;;;;;4.41;100.00;96986.81;104917;1266;98049;-76
2023/12/22 03:37:18;;;;;;;11.40;3.00;;;;;;;4.39;100.00;96986.67;104789;1264;98399;-75
2023/12/22 03:40:03;;;;;;;17.20;3.30;;;;;;;4.40;100.00;96988.54;104732;1265;102279;-76
2023/12/22 03:42:49;;;;;;;11.20;3.30;;;;;;;4.40;100.00;96991.52;104905;1263;99218;-76
2023/12/22 03:45:35;;;;;;;17.20;3.90;;;;;;;4.41;100.00;96989.79;105034;1264;97987;-75
2023/12/22 03:48:20;;;;;;;12.80;3.50;;;;;;;4.39;100.00;96989.65;104867;1267;97894;-76
2023/12/22 03:51:06;;;;;;;21.00;4.40;;;;;;;4.35;100.00;96986.81;104854;1266;98486;-76
2023/12/22 03:53:51;;;;;;;8.80;3.70;;;;;;;4.32;100.00;96988.66;104693;1268;102136;-76
2023/12/22 03:56:36;;;;;;;10.50;2.70;;;;;;;4.30;100.00;96981.84;104926;1264;99094;-76
2023/12/22 03:59:22;;;;;;;14.50;3.50;;;;;;;4.28;100.00;96984.02;105025;1264;98973;-76
2023/12/22 04:02:07;;;;;;;13.60;3.50;;;;;;;4.27;100.00;96982.61;105014;1263;97980;-76
2023/12/22 04:04:53;;;;;;;12.70;3.40;;;;;;;4.25;100.00;96983.69;105090;1265;98502;-75
2023/12/22 04:07:38;;;;;;;9.70;2.60;;;;;;;4.25;100.00;96983.95;105115;1263;102053;-75
2023/12/22 04:10:24;;;;;;;16.80;4.20;;;;;;;4.25;100.00;96980.45;105095;1264;99536;-75
2023/12/22 04:13:10;;;;;;;14.70;2.80;;;;;;;4.23;100.00;96981.11;104848;1267;98006;-75
2023/12/22 04:15:56;;;;;;;13.30;3.20;;;;;;;4.22;100.00;96985.77;104819;1264;97942;-75
2023/12/22 04:18:42;;;;;;;17.10;3.50;;;;;;;4.22;100.00;96986.75;104899;1263;98567;-76
2023/12/22 04:21:28;;;;;;;9.30;2.90;;;;;;;4.21;100.00;96992.08;104907;1267;101436;-76
2023/12/22 04:24:13;;;;;;;15.30;3.40;;;;;;;4.20;100.00;97003.20;104815;1267;100923;-75
2023/12/22 04:26:59;;;;;;;13.80;2.80;;;;;;;4.20;100.00;97012.83;104808;1266;99005;-76
2023/12/22 04:29:44;;;;;;;15.30;4.90;;;;;;;4.17;100.00;97011.91;104720;1265;97991;-76
2023/12/22 04:32:30;;;;;;;16.30;4.20;;;;;;;4.09;100.00;97010.95;104735;1268;98427;-75
2023/12/22 04:35:15;;;;;;;10.50;3.30;;;;;;;4.02;100.00;97009.05;104818;1267;101613;-76
2023/12/22 04:38:01;;;;;;;15.00;3.50;;;;;;;3.97;100.00;97010.34;104774;1262;99174;-76
2023/12/22 04:40:47;;;;;;;17.50;5.00;;;;;;;3.96;100.00;97003.95;104910;1267;97934;-76
2023/12/22 04:43:32;;;;;;;20.70;4.40;;;;;;;3.95;100.00;97002.97;104932;1262;97914;-75
2023/12/22 04:46:18;;;;;;;11.50;3.20;;;;;;;3.93;100.00;97002.57;104957;1262;97872;-75
2023/12/22 04:49:03;;;;;;;11.70;3.60;;;;;;;3.94;100.00;97007.77;104824;1266;102676;-76
2023/12/22 04:51:49;;;;;;;13.70;3.40;;;;;;;3.93;100.00;97001.96;104748;1262;99721;-75
2023/12/22 04:54:34;;;;;;;10.50;2.90;;;;;;;3.93;100.00;97005.89;104714;1267;99171;-76
2023/12/22 04:57:22;;;;;;;9.40;3.50;;;;;;;3.91;100.00;97009.09;104780;1264;97988;-76
2023/12/22 05:00:08;;;;;;;12.30;3.20;;;;;;;3.91;100.00;97011.00;105204;1267;98980;-76
2023/12/22 05:02:53;;;;;;;15.20;4.30;;;;;;;3.91;100.00;97010.40;105094;1263;103075;-75
2023/12/22 05:05:39;;;;;;;13.50;3.00;;;;;;;3.90;100.00;97009.23;105101;1266;100155;-76
2023/12/22 05:08:24;;;;;;;12.20;2.70;;;;;;;3.90;100.00;97010.54;105015;1266;99514;-76
2023/12/22 05:11:10;;;;;;;12.20;3.40;;;;;;;3.90;100.00;97013.40;104846;1262;98465;-76
2023/12/22 05:13:56;;;;;;;12.20;3.50;;;;;;;3.89;100.00;97016.41;105063;1264;98525;-76
2023/12/22 05:16:41;;;;;;;17.30;4.00;;;;;;;3.89;100.00;97021.10;105084;1265;102415;-76
2023/12/22 05:19:27;;;;;;;14.10;3.20;;;;;;;3.89;100.00;97020.06;105037;1264;99365;-75
2023/12/22 05:22:12;;;;;;;14.10;3.40;;;;;;;3.91;100.00;97026.45;104726;1267;99150;-75
2023/12/22 05:24:58;;;;;;;16.00;4.30;;;;;;;3.92;100.00;97030.02;104798;1264;99139;-76
2023/12/22 05:27:43;;;;;;;15.40;3.60;;;;;;;3.93;100.00;97029.19;104781;1265;98513;-75
2023/12/22 05:30:29;;;;;;;21.80;4.10;;;;;;;3.94;100.00;97024.89;104786;1266;102090;-76
2023/12/22 05:33:15;;;;;;;18.30;3.20;;;;;;;3.96;100.00;97028.24;104949;1267;100423;-76
2023/12/22 05:36:00;;;;;;;13.40;3.30;;;;;;;3.97;100.00;97024.77;104814;1263;97966;-76
2023/12/22 05:38:47;;;;;;;18.90;4.10;;;;;;;3.98;100.00;97027.34;104917;1264;99540;-76
2023/12/22 05:41:34;;;;;;;14.60;3.90;;;;;;;4.00;99.97;97026.44;104792;1262;98638;-75
2023/12/22 05:44:19;;;;;;;21.10;4.00;;;;;;;4.02;99.54;97031.29;104937;1262;101353;-76
2023/12/22 05:47:05;;;;;;;16.50;3.80;;;;;;;4.05;99.01;97031.45;105075;1264;99111;-76
2023/12/22 05:49:50;;;;;;;17.80;3.50;;;;;;;4.06;98.44;97033.66;105114;1267;98022;-76
2023/12/22 05:52:36;;;;;;;14.90;3.40;;;;;;;4.07;98.30;97030.46;105088;1263;97898;-75
2023/12/22 05:55:21;;;;;;;16.30;3.60;;;;;;;4.09;97.79;97030.10;105039;1263;97980;-76
2023/12/22 05:58:07;;;;;;;19.80;3.80;;;;;;;4.10;97.35;97032.58;105172;1264;101417;-76
2023/12/22 06:00:52;;;;;;;16.60;3.20;;;;;;;4.10;96.73;97035.14;105134;1266;99095;-76
2023/12/22 06:03:38;;;;;;;18.90;4.70;;;;;;;4.12;96.28;97033.85;105102;1267;97960;-76
2023/12/22 06:06:24;;;;;;;15.60;3.10;;;;;;;4.13;95.90;97033.06;105058;1267;97981;-76
2023/12/22 06:09:12;;;;;;;16.80;3.90;;;;;;;4.12;94.93;97040.89;105039;1262;98525;-76
2023/12/22 06:11:57;;;;;;;21.30;5.00;;;;;;;4.13;94.50;97050.96;104735;1267;101368;-76
2023/12/22 06:14:43;;;;;;;17.50;3.60;;;;;;;4.14;93.83;97056.66;104897;1262;99153;-76
2023/12/22 06:17:29;;;;;;;22.30;4.00;;;;;;;4.15;92.94;97060.14;105008;1266;98383;-75
2023/12/22 06:20:14;;;;;;;21.40;3.80;;;;;;;4.16;92.33;97060.79;104990;1262;98579;-75
2023/12/22 06:23:00;;;;;;;10.70;3.10;;;;;;;4.17;92.04;97060.95;104923;1266;99554;-77
2023/12/22 06:25:46;;;;;;;18.20;3.30;;;;;;;4.17;91.24;97065.31;105070;1266;102452;-77
2023/12/22 06:28:31;;;;;;;11.20;2.90;;;;;;;4.16;90.23;97068.27;106507;1264;99078;-77
2023/12/22 06:31:19;;;;;;;9.50;2.80;;;;;;;4.17;89.02;97074.79;104774;1267;98071;-76
2023/12/22 06:34:05;;;;;;;18.30;3.60;;;;;;;4.17;87.01;97079.78;104819;1266;98125;-76
2023/12/22 06:36:50;;;;;;;12.90;2.30;;;;;;;4.19;85.92;97091.20;104834;1264;97961;-75
2023/12/22 06:39:36;;;;;;;12.30;3.20;;;;;;;4.20;84.93;97092.98;104821;1267;102637;-76
2023/12/22 06:42:21;;;;;;;8.70;2.30;;;;;;;4.22;84.08;97096.29;104766;1262;99156;-76
2023/12/22 06:45:07;;;;;;;10.20;2.50;;;;;;;4.22;83.28;97099.06;104819;1267;99127;-76
2023/12/22 06:47:53;;;;;;;12.10;2.20;;;;;;;4.22;83.22;97107.91;104946;1268;98013;-76
2023/12/22 06:50:39;;;;;;;14.10;2.80;;;;;;;4.20;83.00;97113.96;104889;1264;97900;-75
2023/12/22 06:53:24;;;;;;;18.70;4.20;;;;;;;4.18;83.17;97119.53;105106;1262;101888;-77
2023/12/22 06:56:18;;;;;;;18.00;4.80;;;;;;;4.16;83.56;97129.71;105256;1262;99247;-76
2023/12/22 06:59:03;;;;;;;12.80;2.80;;;;;;;4.15;84.10;97131.80;105098;1267;98958;-75
2023/12/22 07:01:49;;;;;;;12.10;3.60;;;;;;;4.12;83.79;97128.13;104904;1264;98061;-76
2023/12/22 07:04:34;;;;;;;12.80;3.60;;;;;;;4.10;84.18;97132.36;104748;1267;98430;-75
2023/12/22 07:07:20;;;;;;;14.40;3.30;;;;;;;4.07;84.24;97137.06;104741;1267;102616;-75
2023/12/22 07:10:06;;;;;;;16.40;3.30;;;;;;;4.02;83.76;97141.24;104796;1262;100595;-75
2023/12/22 07:12:51;;;;;;;13.00;2.90;;;;;;;4.00;84.33;97146.05;104808;1267;99460;-77
2023/12/22 07:15:37;;;;;;;16.10;3.60;;;;;;;3.97;83.60;97153.39;104969;1267;97875;-75
2023/12/22 07:18:22;;;;;;;15.90;3.30;;;;;;;3.93;83.44;97151.98;104914;1266;98503;-75
2023/12/22 07:21:08;;;;;;;17.00;2.90;;;;;;;3.89;83.21;97159.67;104829;1267;102618;-75
2023/12/22 07:23:53;;;;;;;15.80;3.20;;;;;;;3.84;83.02;97162.67;104836;1262;99190;-76
2023/12/22 07:26:39;;;;;;;12.10;3.10;;;;;;;3.79;82.73;97165.32;104904;1266;97991;-75
2023/12/22 07:29:24;;;;;;;19.50;3.30;;;;;;;3.73;82.49;97171.73;105113;1266;97969;-77
2023/12/22 07:32:10;;;;;;;12.30;3.30;;;;;;;3.71;82.67;97171.92;105008;1263;98489;-76
2023/12/22 07:34:55;;;;;;;14.50;2.60;;;;;;;3.70;82.91;97180.70;105094;1262;101475;-75
2023/12/22 07:37:41;;;;;;;17.60;4.10;;;;;;;3.70;83.15;97175.40;105201;1266;100321;-76
2023/12/22 07:40:27;;;;;;;23.80;6.20;;;;;;;3.68;82.97;97180.43;104945;1267;97963;-76
2023/12/22 07:43:13;;;;;;;16.60;6.90;;;;;;;3.65;82.75;97177.34;104831;1267;98006;-76
2023/12/22 07:45:59;;;;;;;17.70;6.10;;;;;;;3.63;82.77;97176.92;104767;1262;98231;-76
2023/12/22 07:48:45;;;;;;;14.60;4.00;;;;;;;3.62;82.64;97181.61;104767;1267;103480;-76
2023/12/22 07:51:30;;;;;;;16.10;3.60;;;;;;;3.62;82.60;97186.42;104904;1262;100407;-76
2023/12/22 07:54:17;;;;;;;13.60;3.80;;;;;;;3.62;82.87;97185.45;104864;1267;98519;-75
2023/12/22 07:57:02;;;;;;;13.40;3.20;;;;;;;3.62;82.87;97187.31;104737;1267;97978;-76
2023/12/22 07:59:48;;;;;;;16.90;2.80;;;;;;;3.62;82.88;97187.73;104816;1267;98500;-76
2023/12/22 08:02:33;;;;;;;16.90;3.40;;;;;;;3.60;82.66;97184.50;104804;1264;102095;-76
2023/12/22 08:05:19;;;;;;;18.20;3.70;;;;;;;3.59;83.14;97185.37;104882;1265;100850;-76
2023/12/22 08:08:05;;;;;;;16.90;3.80;;;;;;;3.58;83.69;97182.49;104946;1264;98025;-75
2023/12/22 08:10:50;;;;;;;11.20;3.70;;;;;;;3.56;83.92;97177.58;104901;1266;99152;-75
2023/12/22 08:13:35;;;;;;;12.80;3.70;;;;;;;3.55;84.19;97171.73;104997;1263;98723;-75
2023/12/22 08:16:21;;;;;;;9.30;3.40;;;;;;;3.51;84.76;97170.52;105070;1267;101412;-76
2023/12/22 08:19:07;;;;;;;15.90;3.60;;;;;;;3.50;85.22;97166.89;105086;1267;99658;-75
2023/12/22 08:21:54;;;;;;;15.50;3.70;;;;;;;3.47;85.63;97170.80;105103;1265;98090;-76
2023/12/22 08:24:39;;;;;;;13.10;3.10;;;;;;;3.46;86.05;97176.00;105052;1266;98038;-76
2023/12/22 08:27:24;;;;;;;10.30;2.70;;;;;;;3.44;86.28;97172.02;105005;1267;98432;-76
2023/12/22 08:30:10;;;;;;;10.40;3.00;;;;;;;3.43;86.62;97170.50;105050;1267;102644;-76
2023/12/22 08:32:55;;;;;;;15.90;3.40;;;;;;;3.43;87.00;97166.67;105079;1267;100280;-75
2023/12/22 08:35:42;;;;;;;12.80;3.00;;;;;;;3.43;87.02;97165.45;105041;1266;99272;-76
2023/12/22 08:38:27;;;;;;;14.00;3.60;;;;;;;3.45;87.47;97165.75;105034;1267;97932;-76
2023/12/22 08:41:14;;;;;;;11.00;3.90;;;;;;;3.47;87.46;97171.01;105104;1267;98480;-76
2023/12/22 08:44:00;;;;;;;16.70;3.30;;;;;;;3.50;87.63;97168.32;105052;1267;101510;-76
2023/12/22 08:46:45;;;;;;;11.40;4.00;;;;;;;3.54;87.39;97170.17;105043;1266;100369;-76
2023/12/22 08:49:31;;;;;;;10.10;3.90;;;;;;;3.60;87.10;97168.79;104954;1267;99254;-77
2023/12/22 08:52:16;;;;;;;11.40;2.80;;;;;;;3.66;87.23;97168.58;105021;1265;97991;-76
2023/12/22 08:55:08;;;;;;;10.90;3.20;;;;;;;3.70;86.76;97165.76;105110;1264;98505;-76
2023/12/22 08:57:53;;;;;;;15.60;3.40;;;;;;;3.72;86.74;97164.70;105038;1264;101498;-76
2023/12/22 09:00:39;;;;;;;12.80;4.00;;;;;;;3.74;86.65;97169.89;105016;1267;99070;-76
2023/12/22 09:03:26;;;;;;;13.40;3.40;;;;;;;3.77;86.78;97170.23;104888;1267;97980;-77
2023/12/22 09:06:16;;;;;;;13.80;2.90;;;;;;;3.80;86.40;97168.20;105092;1262;98105;-76
2023/12/22 09:09:01;;;;;;;13.10;2.80;;;;;;;3.83;85.65;97168.69;105061;1265;98484;-76
2023/12/22 09:11:46;;;;;;;13.30;3.30;;;;;;;3.87;85.56;97161.37;105088;1267;102636;-76
2023/12/22 09:14:32;;;;;;;10.40;3.20;;;;;;;3.94;85.71;97162.77;105084;1268;99139;-75
2023/12/22 09:17:17;;;;;;;15.80;4.20;;;;;;;4.04;85.77;97153.20;104991;1262;97981;-75
2023/12/22 09:20:03;;;;;;;15.90;3.50;;;;;;;4.13;85.03;97145.26;104764;1266;97957;-75
2023/12/22 09:22:49;;;;;;;11.60;3.20;;;;;;;4.19;85.15;97146.51;104828;1267;98009;-74
2023/12/22 09:25:34;;;;;;;11.70;2.70;;;;;;;4.23;84.94;97142.04;104872;1267;101929;-75
2023/12/22 09:28:20;;;;;;;13.20;3.30;;;;;;;4.23;84.48;97137.11;104781;1262;99106;-74
2023/12/22 09:31:07;;;;;;;12.30;3.50;;;;;;;4.20;84.25;97134.87;104730;1267;97973;-76
2023/12/22 09:33:52;;;;;;;9.40;3.10;;;;;;;4.16;84.52;97135.58;105367;1266;97895;-76
2023/12/22 09:36:38;;;;;;;9.20;3.50;;;;;;;4.15;84.60;97128.41;104767;1262;98543;-76
2023/12/22 09:39:23;;;;;;;11.20;3.20;;;;;;;4.11;84.31;97123.76;104759;1267;102143;-76
2023/12/22 09:42:09;;;;;;;10.50;3.40;;;;;;;4.07;84.75;97136.65;104851;1268;99099;-76
2023/12/22 09:44:58;;;;;;;8.00;1.60;;;;;;;3.91;85.77;97215.52;104980;1265;97955;-76
2023/12/22 09:47:45;;;;;;;2.00;1.20;;;;;;;3.29;87.10;97246.89;105028;1267;99263;-76
2023/12/22 09:50:33;;;;;;;4.20;0.80;;;;;;;2.73;88.71;97249.32;105060;1262;98419;-77
2023/12/22 09:53:20;;;;;;;3.00;1.20;;;;;;;2.29;90.73;97247.94;105211;1266;102633;-76
2023/12/22 09:56:06;;;;;;;3.40;0.90;;;;;;;2.01;92.35;97237.35;104962;1267;99273;-76
2023/12/22 09:58:53;;;;;;;3.20;1.00;;;;;;;1.79;93.86;97236.36;105155;1262;98960;-77
2023/12/22 10:01:48;;;;;;;1.70;0.50;;;;;;;1.64;94.96;97230.86;105159;1267;98052;-76
2023/12/22 10:04:33;;;;;;;2.30;1.00;;;;;;;1.47;96.01;97231.77;104859;1267;98453;-77
2023/12/22 10:07:21;;;;;;;2.20;0.80;;;;;;;1.29;97.77;97229.35;104739;1262;102365;-76
2023/12/22 10:10:08;;;;;;;3.80;0.90;;;;;;;1.22;99.26;97228.29;105022;1267;99101;-77
2023/12/22 10:12:54;;;;;;;0.90;0.50;;;;;;;1.17;99.90;97223.15;104977;1264;98587;-75
2023/12/22 10:15:41;;;;;;;4.40;0.90;;;;;;;1.15;100.00;97214.01;104921;1265;97862;-75
2023/12/22 10:18:28;;;;;;;1.60;0.90;;;;;;;1.14;100.00;97210.55;105161;1267;97965;-76
2023/12/22 10:21:14;;;;;;;1.30;0.70;;;;;;;1.13;100.00;97215.08;104998;1268;102517;-76
2023/12/22 10:23:59;;;;;;;1.90;0.80;;;;;;;1.14;100.00;97219.40;104955;1267;100425;-76
2023/12/22 10:26:46;;;;;;;3.90;2.00;;;;;;;1.13;100.00;97216.80;104756;1267;99334;-75
2023/12/22 10:29:32;;;;;;;3.00;1.80;;;;;;;1.14;100.00;97207.39;104695;1262;97962;-75
2023/12/22 10:32:18;;;;;;;5.40;2.30;;;;;;;1.14;100.00;97190.60;104758;1266;98496;-75
2023/12/22 10:35:04;;;;;;;8.80;3.20;;;;;;;1.16;100.00;97162.81;104715;1267;101316;-75
2023/12/22 10:37:53;;;;;;;5.80;2.50;;;;;;;1.22;100.00;97148.95;104793;1264;99078;-75
2023/12/22 10:40:38;;;;;;;12.60;3.90;;;;;;;1.29;100.00;97142.67;104721;1267;99257;-75
2023/12/22 10:43:24;;;;;;;10.30;3.40;;;;;;;1.38;100.00;97141.27;104850;1267;97972;-75
2023/12/22 10:46:10;;;;;;;8.30;2.70;;;;;;;1.48;100.00;97141.40;104984;1262;98410;-76
2023/12/22 10:48:56;;;;;;;10.90;2.90;;;;;;;1.61;100.00;97138.27;105069;1265;101359;-75
2023/12/22 10:51:42;;;;;;;5.80;2.90;;;;;;;1.70;100.00;97133.45;105017;1262;99105;-75
2023/12/22 10:54:30;;;;;;;11.00;2.90;;;;;;;1.74;100.00;97129.08;104856;1267;98131;-77
2023/12/22 10:57:19;;;;;;;6.90;1.90;;;;;;;1.76;100.00;97127.69;105384;1265;97993;-77
2023/12/22 11:00:10;;;;;;;8.80;2.30;;;;;;;1.77;100.00;97121.75;105108;1268;98609;-76
2023/12/22 11:03:01;;;;;;;8.90;3.70;;;;;;;1.78;100.00;97120.56;105176;1267;102701;-77
2023/12/22 11:05:48;;;;;;;6.30;2.80;;;;;;;1.80;100.00;97124.97;105106;1268;99626;-77
2023/12/22 11:08:35;;;;;;;10.10;2.70;;;;;;;1.82;100.00;97122.40;105072;1267;99063;-77
2023/12/22 11:11:30;;;;;;;5.60;2.10;;;;;;;1.83;100.00;97121.41;105091;1263;98916;-76
2023/12/22 11:14:17;;;;;;;4.70;1.60;;;;;;;1.84;100.00;97115.19;105215;1268;99389;-76
2023/12/22 11:17:05;;;;;;;5.10;2.10;;;;;;;1.87;100.00;97107.09;105270;1267;101449;-77
2023/12/22 11:19:54;;;;;;;4.90;1.30;;;;;;;1.89;100.00;97108.95;105348;1267;99432;-77
2023/12/22 11:22:41;;;;;;;6.10;2.10;;;;;;;1.92;100.00;97107.73;105384;1267;97980;-76
2023/12/22 11:25:29;;;;;;;3.70;1.40;;;;;;;2.01;100.00;97115.61;105122;1267;98110;-77
2023/12/22 11:28:18;;;;;;;7.10;2.10;;;;;;;2.04;100.00;97112.16;106174;1262;98581;-76
2023/12/22 11:31:06;;;;;;;5.10;2.10;;;;;;;2.04;100.00;97105.71;105387;1265;102678;-77
2023/12/22 11:33:51;;;;;;;9.00;3.10;;;;;;;2.06;100.00;97101.15;105119;1264;99135;-77
2023/12/22 11:36:38;;;;;;;7.30;2.90;;;;;;;2.07;100.00;97100.86;105195;1270;98036;-77
2023/12/22 11:39:25;;;;;;;8.50;4.10;;;;;;;2.08;100.00;97101.25;106324;1262;97965;-77
2023/12/22 11:42:34;;;;;;;7.20;3.40;;;;;;;2.11;100.00;97094.89;105741;1265;98399;-77
2023/12/22 11:45:22;;;;;;;7.80;3.30;;;;;;;2.14;100.00;97086.45;105138;1266;101349;-76
2023/12/22 11:48:10;;;;;;;6.70;2.40;;;;;;;2.18;100.00;97083.23;105117;1263;99232;-76
2023/12/22 11:50:55;;;;;;;6.60;2.90;;;;;;;2.23;100.00;97081.52;105103;1262;97981;-76
2023/12/22 11:53:41;;;;;;;7.10;2.20;;;;;;;2.26;100.00;97077.81;105012;1262;97992;-76
2023/12/22 11:56:29;;;;;;;9.10;2.10;;;;;;;2.28;100.00;97072.76;105166;1265;98432;-76
2023/12/22 11:59:16;;;;;;;7.00;2.60;;;;;;;2.31;100.00;97069.06;105129;1263;102526;-76
2023/12/22 12:02:02;;;;;;;2.70;1.80;;;;;;;2.31;100.00;97065.54;105123;1268;100721;-77
2023/12/22 12:04:48;;;;;;;3.90;1.50;;;;;;;2.33;100.00;97063.61;105085;1263;100105;-76
2023/12/22 12:07:47;;;;;;;6.90;2.10;;;;;;;2.35;100.00;97066.67;105092;1267;98584;-77
2023/12/22 12:10:33;;;;;;;8.20;2.20;;;;;;;2.35;100.00;97069.48;105134;1267;98419;-76
2023/12/22 12:13:23;;;;;;;7.00;2.00;;;;;;;2.32;100.00;97069.36;105301;1262;101886;-76
2023/12/22 12:16:10;;;;;;;7.30;2.00;;;;;;;2.30;100.00;97072.46;105612;1267;101575;-76
2023/12/22 12:18:58;;;;;;;6.40;2.30;;;;;;;2.28;100.00;97070.05;105954;1267;98509;-76
2023/12/22 12:21:45;;;;;;;5.50;2.20;;;;;;;2.26;100.00;97067.84;105123;1267;98032;-76
2023/12/22 12:24:30;;;;;;;8.00;2.70;;;;;;;2.23;100.00;97060.14;105013;1267;99511;-76
2023/12/22 12:27:20;;;;;;;5.40;1.90;;;;;;;2.21;100.00;97058.09;104953;1266;101372;-76
2023/12/22 12:30:14;;;;;;;5.60;2.00;;;;;;;2.20;100.00;97053.56;105112;1267;99212;-76
2023/12/22 12:33:07;;;;;;;6.70;2.00;;;;;;;2.18;100.00;97052.13;105005;1265;98941;-76
2023/12/22 12:35:55;;;;;;;4.80;2.50;;;;;;;2.16;100.00;97049.05;105119;1263;97976;-76
2023/12/22 12:38:58;;;;;;;8.60;2.70;;;;;;;2.14;100.00;97055.17;104994;1262;97978;-76
2023/12/22 12:41:52;;;;;;;23.80;14.10;;;;;;;2.10;100.00;97051.52;105034;1262;101362;-75
2023/12/22 12:44:37;;;;;;;17.70;8.20;;;;;;;2.07;100.00;97051.60;105094;1267;99865;-76
2023/12/22 12:47:23;;;;;;;10.10;4.90;;;;;;;2.04;100.00;97049.76;104977;1262;99151;-76